PWSweather.com
Personal Weather Stations
Station Observations
PENICUIKWS
PenicuikGB

PenicuikGB

Lat: 55.830932, Lon: -3.224533000000065

Elevation: 166

Station Type: Fine Offset

http://weather.penicuik.org

Latest ConditionsUpdated 3:15:03 PM GMT Saturday, Oct 21, 2017
Currently Today's Max Today's Min Today's Average
Temperature 54.9°F12.7°C 59.4°F15.2°C 46.4°F8.0°C 52.8°F11.6°C
Dew Point 47.4°F8.6°C 50.2°F10.1°C 44.7°F7.1°C 47.2°F8.4°C
Winds 2.2 mph SSW3.5 kmh SSW 9.9 mph SSW15.9 kmh SSW - 4.2 mph 6.8 kmh
Wind Gusts 3.8 mph6.1 kmh 15.9 mph25.6 kmh - -
Humidity 76% 95% 64% 82%
Pressure 29.19 in988.5 mb 29.41 in995.9 mb 29.18 in988.1 mb -
Precipitation - 0.06 in1.5 mm - -
Hour Temp Dew Point Humidity Winds Wind Gusts Pressure Precip Precip Rate Daily Precip Total
03:15 PM 54.9°F12.7°C 47.4°F8.6°C 76% 2.2 mph SSW3.5 kmh SSW 3.8 mph6.1 kmh 29.19 in988.5 mb 0.00 in0.0 mm 0.00 in0.0 mm 0.06 in1.5 mm
03:00 PM 55.2°F12.9°C 47.4°F8.6°C 75% 5.4 mph SE8.7 kmh SE 8.3 mph13.4 kmh 29.19 in988.5 mb 0.00 in0.0 mm 0.00 in0.0 mm 0.06 in1.5 mm
02:45 PM 56.7°F13.7°C 47.7°F8.7°C 72% 9.0 mph SSE14.5 kmh SSE 12.1 mph19.5 kmh 29.19 in988.5 mb 0.00 in0.0 mm 0.00 in0.0 mm 0.06 in1.5 mm
02:30 PM 57.9°F14.4°C 47.4°F8.6°C 68% 5.5 mph SSW8.9 kmh SSW 10.7 mph17.2 kmh 29.18 in988.1 mb 0.00 in0.0 mm 0.00 in0.0 mm 0.06 in1.5 mm
02:15 PM 57.9°F14.4°C 48.6°F9.2°C 71% 6.0 mph SSE9.7 kmh SSE 8.3 mph13.4 kmh 29.19 in988.5 mb 0.00 in0.0 mm 0.00 in0.0 mm 0.06 in1.5 mm
02:00 PM 57.0°F13.9°C 48.1°F8.9°C 72% 7.1 mph SW11.4 kmh SW 9.8 mph15.8 kmh 29.19 in988.5 mb 0.00 in0.0 mm 0.00 in0.0 mm 0.06 in1.5 mm
01:45 PM 56.8°F13.8°C 47.9°F8.8°C 72% 9.2 mph SSE14.8 kmh SSE 11.4 mph18.3 kmh 29.19 in988.5 mb 0.00 in0.0 mm 0.00 in0.0 mm 0.06 in1.5 mm
01:30 PM 56.8°F13.8°C 47.9°F8.8°C 72% 8.3 mph S13.4 kmh S 11.4 mph18.3 kmh 29.19 in988.5 mb 0.00 in0.0 mm 0.00 in0.0 mm 0.06 in1.5 mm
01:15 PM 56.8°F13.8°C 47.9°F8.8°C 72% 9.0 mph SSE14.5 kmh SSE 11.4 mph18.3 kmh 29.20 in988.8 mb 0.00 in0.0 mm 0.00 in0.0 mm 0.06 in1.5 mm
01:00 PM 57.4°F14.1°C 48.1°F8.9°C 71% 8.9 mph SE14.3 kmh SE 12.1 mph19.5 kmh 29.19 in988.5 mb 0.00 in0.0 mm 0.00 in0.0 mm 0.06 in1.5 mm
12:45 PM 57.0°F13.9°C 48.1°F8.9°C 72% 9.4 mph SSW15.1 kmh SSW 11.4 mph18.3 kmh 29.20 in988.8 mb 0.00 in0.0 mm 0.00 in0.0 mm 0.06 in1.5 mm
12:30 PM 57.4°F14.1°C 47.3°F8.5°C 69% 9.1 mph SSW14.6 kmh SSW 15.9 mph25.6 kmh 29.21 in989.2 mb 0.00 in0.0 mm 0.00 in0.0 mm 0.06 in1.5 mm
12:15 PM 58.6°F14.8°C 48.5°F9.2°C 69% 9.9 mph SSW15.9 kmh SSW 15.9 mph25.6 kmh 29.20 in988.8 mb 0.00 in0.0 mm 0.00 in0.0 mm 0.06 in1.5 mm
12:00 PM 56.7°F13.7°C 47.7°F8.7°C 72% 8.0 mph SSE12.9 kmh SSE 10.7 mph17.2 kmh 29.21 in989.2 mb 0.00 in0.0 mm 0.00 in0.0 mm 0.06 in1.5 mm
11:45 AM 56.8°F13.8°C 47.5°F8.6°C 71% 9.6 mph S15.4 kmh S 13.0 mph20.9 kmh 29.21 in989.2 mb 0.00 in0.0 mm 0.00 in0.0 mm 0.06 in1.5 mm
11:30 AM 57.2°F14.0°C 46.7°F8.2°C 68% 8.8 mph S14.2 kmh S 11.4 mph18.3 kmh 29.21 in989.2 mb 0.00 in0.0 mm 0.00 in0.0 mm 0.06 in1.5 mm
11:15 AM 57.2°F14.0°C 47.5°F8.6°C 70% 7.9 mph SE12.7 kmh SE 9.8 mph15.8 kmh 29.22 in989.5 mb 0.00 in0.0 mm 0.00 in0.0 mm 0.06 in1.5 mm
11:00 AM 58.1°F14.5°C 46.8°F8.2°C 66% 7.2 mph S11.6 kmh S 11.4 mph18.3 kmh 29.23 in989.8 mb 0.00 in0.0 mm 0.00 in0.0 mm 0.06 in1.5 mm
10:45 AM 59.4°F15.2°C 47.2°F8.4°C 64% 6.2 mph SE10.0 kmh SE 7.6 mph12.2 kmh 29.23 in989.8 mb 0.00 in0.0 mm 0.00 in0.0 mm 0.06 in1.5 mm
10:30 AM 56.3°F13.5°C 47.4°F8.6°C 72% 5.6 mph SSW9.0 kmh SSW 7.6 mph12.2 kmh 29.23 in989.8 mb 0.00 in0.0 mm 0.00 in0.0 mm 0.06 in1.5 mm
10:15 AM 56.5°F13.6°C 47.6°F8.7°C 72% 6.3 mph S10.1 kmh S 9.2 mph14.8 kmh 29.24 in990.2 mb 0.00 in0.0 mm 0.00 in0.0 mm 0.06 in1.5 mm
09:45 AM 57.6°F14.2°C 46.7°F8.2°C 67% 4.8 mph S7.7 kmh S 6.9 mph11.1 kmh 29.25 in990.5 mb 0.00 in0.0 mm 0.00 in0.0 mm 0.06 in1.5 mm
09:30 AM 57.0°F13.9°C 48.1°F8.9°C 72% 5.7 mph S9.2 kmh S 9.2 mph14.8 kmh 29.25 in990.5 mb 0.00 in0.0 mm 0.00 in0.0 mm 0.06 in1.5 mm
09:15 AM 57.6°F14.2°C 47.5°F8.6°C 69% 6.4 mph SSE10.3 kmh SSE 8.3 mph13.4 kmh 29.24 in990.2 mb 0.01 in0.3 mm 0.00 in0.0 mm 0.06 in1.5 mm
09:00 AM 55.0°F12.8°C 48.7°F9.3°C 79% 6.5 mph S10.5 kmh S 9.2 mph14.8 kmh 29.25 in990.5 mb 0.01 in0.3 mm 0.00 in0.0 mm 0.06 in1.5 mm
08:45 AM 52.5°F11.4°C 47.8°F8.8°C 84% 5.7 mph S9.2 kmh S 7.6 mph12.2 kmh 29.25 in990.5 mb 0.01 in0.3 mm 0.00 in0.0 mm 0.06 in1.5 mm
08:30 AM 53.1°F11.7°C 49.9°F9.9°C 89% 2.4 mph SSW3.9 kmh SSW 3.1 mph5.0 kmh 29.26 in990.9 mb 0.01 in0.3 mm 0.04 in1.0 mm 0.06 in1.5 mm
08:15 AM 52.7°F11.5°C 50.2°F10.1°C 91% 1.9 mph E3.1 kmh E 3.8 mph6.1 kmh 29.27 in991.2 mb 0.00 in0.0 mm 0.00 in0.0 mm 0.05 in1.3 mm
08:00 AM 51.6°F10.9°C 50.0°F10.0°C 94% 4.0 mph SW6.4 kmh SW 5.4 mph8.7 kmh 29.27 in991.2 mb 0.00 in0.0 mm 0.00 in0.0 mm 0.05 in1.3 mm
07:45 AM 50.5°F10.3°C 48.9°F9.4°C 94% 3.8 mph S6.1 kmh S 6.0 mph9.7 kmh 29.27 in991.2 mb 0.00 in0.0 mm 0.00 in0.0 mm 0.05 in1.3 mm
07:30 AM 48.6°F9.2°C 46.9°F8.3°C 94% 2.4 mph S3.9 kmh S 3.8 mph6.1 kmh 29.27 in991.2 mb 0.00 in0.0 mm 0.00 in0.0 mm 0.05 in1.3 mm
07:15 AM 47.5°F8.6°C 46.1°F7.8°C 95% 0.6 mph NW1.0 kmh NW 1.6 mph2.6 kmh 29.27 in991.2 mb 0.00 in0.0 mm 0.00 in0.0 mm 0.05 in1.3 mm
07:00 AM 47.5°F8.6°C 46.1°F7.8°C 95% Calm Calm -- 29.27 in991.2 mb 0.00 in0.0 mm 0.00 in0.0 mm 0.05 in1.3 mm
06:45 AM 47.7°F8.7°C 46.3°F7.9°C 95% 1.1 mph N1.8 kmh N 2.2 mph3.5 kmh 29.27 in991.2 mb 0.00 in0.0 mm 0.00 in0.0 mm 0.05 in1.3 mm
06:30 AM 46.9°F8.3°C 45.3°F7.4°C 94% 1.4 mph NE2.3 kmh NE 3.1 mph5.0 kmh 29.27 in991.2 mb 0.00 in0.0 mm 0.00 in0.0 mm 0.05 in1.3 mm
06:15 AM 47.1°F8.4°C 45.5°F7.5°C 94% 1.3 mph NNW2.1 kmh NNW 3.1 mph5.0 kmh 29.28 in991.5 mb 0.00 in0.0 mm 0.00 in0.0 mm 0.05 in1.3 mm
06:00 AM 46.9°F8.3°C 45.3°F7.4°C 94% 1.3 mph N2.1 kmh N 3.1 mph5.0 kmh 29.29 in991.9 mb 0.00 in0.0 mm 0.00 in0.0 mm 0.05 in1.3 mm
05:45 AM 46.4°F8.0°C 44.8°F7.1°C 94% 0.7 mph N1.1 kmh N 1.6 mph2.6 kmh 29.30 in992.2 mb 0.00 in0.0 mm 0.00 in0.0 mm 0.05 in1.3 mm
05:30 AM 46.6°F8.1°C 44.7°F7.1°C 93% 0.6 mph N1.0 kmh N 1.6 mph2.6 kmh 29.29 in991.9 mb 0.00 in0.0 mm 0.00 in0.0 mm 0.05 in1.3 mm
05:00 AM 47.7°F8.7°C 46.0°F7.8°C 94% 0.4 mph NNW0.6 kmh NNW 1.6 mph2.6 kmh 29.30 in992.2 mb 0.00 in0.0 mm 0.00 in0.0 mm 0.05 in1.3 mm
04:45 AM 48.6°F9.2°C 46.6°F8.1°C 93% 0.3 mph WSW0.5 kmh WSW 1.6 mph2.6 kmh 29.31 in992.6 mb 0.00 in0.0 mm 0.00 in0.0 mm 0.05 in1.3 mm
04:30 AM 48.9°F9.4°C 47.0°F8.3°C 93% 0.1 mph N0.2 kmh N 0.7 mph1.1 kmh 29.32 in992.9 mb 0.00 in0.0 mm 0.00 in0.0 mm 0.05 in1.3 mm
04:15 AM 49.8°F9.9°C 47.9°F8.8°C 93% 0.4 mph N0.6 kmh N 1.6 mph2.6 kmh 29.32 in992.9 mb 0.00 in0.0 mm 0.00 in0.0 mm 0.05 in1.3 mm
03:30 AM 50.7°F10.4°C 48.5°F9.2°C 92% 1.2 mph NE1.9 kmh NE 2.2 mph3.5 kmh 29.33 in993.2 mb 0.00 in0.0 mm 0.00 in0.0 mm 0.05 in1.3 mm
03:15 AM 50.5°F10.3°C 48.3°F9.1°C 92% 2.8 mph SSW4.5 kmh SSW 3.8 mph6.1 kmh 29.33 in993.2 mb 0.00 in0.0 mm 0.00 in0.0 mm 0.05 in1.3 mm
03:00 AM 50.0°F10.0°C 47.5°F8.6°C 91% 1.1 mph SE1.8 kmh SE 3.1 mph5.0 kmh 29.34 in993.6 mb 0.00 in0.0 mm 0.00 in0.0 mm 0.05 in1.3 mm
02:30 AM 50.0°F10.0°C 47.5°F8.6°C 91% 0.8 mph NNE1.3 kmh NNE 1.6 mph2.6 kmh 29.36 in994.2 mb 0.00 in0.0 mm 0.00 in0.0 mm 0.05 in1.3 mm
02:15 AM 50.0°F10.0°C 47.2°F8.4°C 90% 0.7 mph N1.1 kmh N 1.6 mph2.6 kmh 29.36 in994.2 mb 0.00 in0.0 mm 0.00 in0.0 mm 0.05 in1.3 mm
02:00 AM 50.0°F10.0°C 47.2°F8.4°C 90% 0.6 mph S1.0 kmh S 2.2 mph3.5 kmh 29.36 in994.2 mb 0.02 in0.5 mm 0.00 in0.0 mm 0.05 in1.3 mm
01:45 AM 50.0°F10.0°C 47.2°F8.4°C 90% 2.7 mph S4.3 kmh S 3.8 mph6.1 kmh 29.38 in994.9 mb 0.04 in1.0 mm 0.00 in0.0 mm 0.05 in1.3 mm
01:30 AM 49.8°F9.9°C 47.0°F8.3°C 90% 2.4 mph WSW3.9 kmh WSW 3.8 mph6.1 kmh 29.38 in994.9 mb 0.04 in1.0 mm 0.00 in0.0 mm 0.05 in1.3 mm
01:15 AM 49.8°F9.9°C 46.4°F8.0°C 88% 0.9 mph SW1.4 kmh SW 2.2 mph3.5 kmh 29.39 in995.3 mb 0.04 in1.0 mm 0.16 in4.1 mm 0.05 in1.3 mm
01:00 AM 50.0°F10.0°C 45.7°F7.6°C 85% 0.5 mph NE0.8 kmh NE 1.6 mph2.6 kmh 29.39 in995.3 mb 0.00 in0.0 mm 0.00 in0.0 mm 0.01 in0.3 mm
12:45 AM 50.2°F10.1°C 45.5°F7.5°C 84% 1.3 mph NNW2.1 kmh NNW 2.2 mph3.5 kmh 29.40 in995.6 mb 0.01 in0.3 mm 0.00 in0.0 mm 0.01 in0.3 mm
12:30 AM 50.5°F10.3°C 45.3°F7.4°C 82% 2.6 mph NW4.2 kmh NW 6.0 mph9.7 kmh 29.40 in995.6 mb 0.01 in0.3 mm 0.00 in0.0 mm 0.01 in0.3 mm
12:15 AM 51.1°F10.6°C 45.5°F7.5°C 81% 5.8 mph SSW9.3 kmh SSW 8.3 mph13.4 kmh 29.41 in995.9 mb 0.01 in0.3 mm 0.04 in1.0 mm 0.01 in0.3 mm